Time;durP1;ratioP1;P1;durP2;ratioP2;P2;SDS_P1;SDS_P2;PMS_P1;PMS_P2;Temp;Humidity;BMP_temperature;BMP_pressure;BME280_temperature;BME280_humidity;BME280_pressure;Samples;Min_cycle;Max_cycle;Signal;HPM_P1;HPM_P2
2022/12/14 00:00:31;;;;;;;11.73;7.30;;;0.30;24.40;;;;;;5081506;28;20388;-77
2022/12/14 00:02:57;;;;;;;11.27;6.80;;;0.20;24.80;;;;;;5085747;28;20426;-78
2022/12/14 00:05:22;;;;;;;12.55;7.50;;;0.30;25.40;;;;;;5083049;28;20439;-76
2022/12/14 00:07:48;;;;;;;10.50;7.20;;;0.40;25.00;;;;;;5079524;28;20403;-79
2022/12/14 00:10:13;;;;;;;10.90;7.27;;;0.30;25.10;;;;;;5079360;28;20487;-76
2022/12/14 00:12:39;;;;;;;10.87;7.30;;;0.10;26.10;;;;;;5079810;28;20394;-78
2022/12/14 00:15:05;;;;;;;10.95;7.25;;;0.20;26.20;;;;;;5079266;28;20391;-78
2022/12/14 00:17:30;;;;;;;10.77;6.95;;;0.00;26.50;;;;;;5075176;28;20388;-77
2022/12/14 00:19:56;;;;;;;10.47;6.87;;;0.20;26.20;;;;;;5076814;28;20415;-79
2022/12/14 00:22:22;;;;;;;10.75;7.22;;;0.10;26.80;;;;;;5076672;28;20395;-76
2022/12/14 00:24:47;;;;;;;11.05;7.32;;;0.30;25.60;;;;;;5078561;28;20384;-78
2022/12/14 00:27:13;;;;;;;13.47;7.53;;;0.30;25.90;;;;;;5080744;28;20475;-78
2022/12/14 00:29:38;;;;;;;12.63;7.50;;;0.40;25.00;;;;;;5080223;28;20376;-77
2022/12/14 00:32:04;;;;;;;10.83;6.80;;;0.40;25.00;;;;;;5079823;28;20391;-77
2022/12/14 00:34:30;;;;;;;10.30;6.82;;;0.60;24.80;;;;;;5087973;28;20748;-77
2022/12/14 00:36:56;;;;;;;11.90;6.50;;;0.40;25.30;;;;;;5086029;28;20448;-77
2022/12/14 00:39:22;;;;;;;11.98;7.93;;;0.30;26.20;;;;;;5085686;28;20388;-78
2022/12/14 00:41:47;;;;;;;11.10;7.07;;;0.20;27.00;;;;;;5086159;28;20403;-77
2022/12/14 00:44:13;;;;;;;10.50;6.83;;;0.10;27.60;;;;;;5089600;28;20407;-78
2022/12/14 00:46:38;;;;;;;11.47;7.03;;;0.00;28.00;;;;;;5093239;28;20410;-76
2022/12/14 00:49:04;;;;;;;12.67;7.80;;;0.00;28.40;;;;;;5093065;28;20408;-76
2022/12/14 00:51:30;;;;;;;9.45;6.40;;;0.00;28.70;;;;;;5093438;28;20414;-76
2022/12/14 00:53:55;;;;;;;11.43;7.25;;;0.00;28.60;;;;;;5089204;28;20390;-79
2022/12/14 00:56:21;;;;;;;14.83;8.23;;;0.00;28.60;;;;;;5082215;28;20457;-77
2022/12/14 00:58:53;;;;;;;14.87;7.80;;;0.10;28.60;;;;;;5079767;28;20417;-76
2022/12/14 01:01:19;;;;;;;16.30;7.40;;;0.10;28.60;;;;;;5081346;28;20392;-77
2022/12/14 01:03:45;;;;;;;16.40;9.23;;;0.10;28.80;;;;;;5080663;28;20845;-77
2022/12/14 01:06:19;;;;;;;13.57;7.63;;;0.10;29.20;;;;;;5083979;28;20394;-78
2022/12/14 01:08:45;;;;;;;12.77;7.68;;;0.10;29.40;;;;;;5083318;28;20438;-77
2022/12/14 01:11:12;;;;;;;14.77;7.80;;;0.00;29.20;;;;;;5084939;28;20388;-77
2022/12/14 01:13:38;;;;;;;13.75;7.22;;;0.00;29.30;;;;;;5087252;28;20744;-76
2022/12/14 01:16:11;;;;;;;11.50;6.93;;;0.10;28.80;;;;;;5082473;28;20518;-77
2022/12/14 01:18:38;;;;;;;13.43;8.10;;;0.20;28.90;;;;;;5082522;28;20380;-76
2022/12/14 01:21:25;;;;;;;13.60;8.00;;;0.20;29.00;;;;;;5083695;28;20426;-77
2022/12/14 01:23:53;;;;;;;12.23;7.20;;;0.20;28.60;;;;;;5090131;28;20458;-76
2022/12/14 01:26:20;;;;;;;14.65;8.40;;;0.00;29.10;;;;;;5084467;28;20383;-78
2022/12/14 01:28:47;;;;;;;12.18;7.78;;;-0.10;30.10;;;;;;5081640;28;20879;-75
2022/12/14 01:31:18;;;;;;;11.38;7.60;;;-0.20;30.40;;;;;;5080705;28;20623;-76
2022/12/14 01:33:44;;;;;;;11.68;7.30;;;-0.20;30.90;;;;;;5082086;28;20379;-77
2022/12/14 01:36:12;;;;;;;9.70;6.63;;;-0.20;30.70;;;;;;5081576;28;20403;-77
2022/12/14 01:38:37;;;;;;;12.38;7.20;;;-0.30;30.90;;;;;;5081034;28;20593;-79
2022/12/14 01:41:05;;;;;;;10.77;7.10;;;-0.30;30.70;;;;;;5081948;28;20488;-77
2022/12/14 01:43:49;;;;;;;13.10;7.50;;;-0.40;30.30;;;;;;5083620;28;20383;-76
2022/12/14 01:46:20;;;;;;;15.57;7.85;;;-0.50;31.30;;;;;;5082794;28;20444;-77
2022/12/14 01:48:50;;;;;;;12.68;7.20;;;-0.10;32.40;;;;;;5085126;28;20418;-77
2022/12/14 01:51:16;;;;;;;7.95;5.40;;;0.20;29.80;;;;;;5081368;28;20872;-78
2022/12/14 01:53:42;;;;;;;10.65;5.88;;;0.20;26.80;;;;;;5081214;28;20459;-77
2022/12/14 01:56:07;;;;;;;10.68;6.25;;;0.00;27.10;;;;;;5080656;28;20384;-78
2022/12/14 01:58:33;;;;;;;9.73;6.07;;;-0.10;28.50;;;;;;5080976;28;20853;-79
2022/12/14 02:01:00;;;;;;;11.83;6.70;;;-0.20;28.20;;;;;;5081090;28;20453;-80
2022/12/14 02:03:35;;;;;;;11.20;6.03;;;-0.10;28.80;;;;;;5084559;28;20398;-77
2022/12/14 02:06:27;;;;;;;9.82;5.68;;;0.00;28.30;;;;;;5084890;28;20391;-78
2022/12/14 02:08:54;;;;;;;11.90;6.30;;;-0.20;27.00;;;;;;5083373;28;20461;-78
2022/12/14 02:11:48;;;;;;;8.93;5.30;;;-0.20;28.30;;;;;;5081276;28;20384;-79
2022/12/14 02:14:14;;;;;;;11.07;6.47;;;-0.10;28.50;;;;;;5079236;28;20504;-77
2022/12/14 02:16:40;;;;;;;8.45;5.60;;;0.20;27.80;;;;;;5082883;28;20380;-78
2022/12/14 02:19:05;;;;;;;7.82;5.30;;;0.00;27.50;;;;;;5081901;28;20411;-78
2022/12/14 02:22:04;;;;;;;10.57;5.70;;;0.00;27.10;;;;;;5088824;28;20460;-76
2022/12/14 02:24:59;;;;;;;7.55;5.07;;;-0.20;26.90;;;;;;5093882;28;20384;-77
2022/12/14 02:27:44;;;;;;;10.43;6.10;;;0.00;26.10;;;;;;5089285;28;20439;-76
2022/12/14 02:30:20;;;;;;;13.55;6.50;;;0.20;25.30;;;;;;5093431;28;20382;-77
2022/12/14 02:32:52;;;;;;;9.98;6.35;;;0.30;26.20;;;;;;5091891;28;20406;-77
2022/12/14 02:35:50;;;;;;;13.82;6.82;;;0.20;26.80;;;;;;5089757;28;20383;-78
2022/12/14 02:38:24;;;;;;;14.10;8.27;;;0.00;27.70;;;;;;5086282;28;20415;-76
2022/12/14 02:41:08;;;;;;;14.70;7.60;;;0.00;28.80;;;;;;5090647;23;20899;-72
2022/12/14 02:44:04;;;;;;;12.65;7.25;;;-0.10;29.90;;;;;;5071485;28;20387;-70
2022/12/14 02:46:46;;;;;;;13.07;7.20;;;-0.10;30.20;;;;;;5070969;28;20417;-70
2022/12/14 02:49:23;;;;;;;13.17;7.90;;;-0.10;30.80;;;;;;5070391;28;20400;-73
2022/12/14 02:51:58;;;;;;;14.43;8.75;;;-0.40;32.00;;;;;;5070101;28;20540;-71
2022/12/14 02:54:40;;;;;;;12.85;7.85;;;-0.80;33.90;;;;;;5070896;28;20584;-71
2022/12/14 02:57:18;;;;;;;14.63;8.55;;;-1.00;35.50;;;;;;5070796;28;20419;-71
2022/12/14 02:59:44;;;;;;;16.93;9.73;;;-1.10;36.80;;;;;;5070757;28;20457;-71
2022/12/14 03:02:11;;;;;;;13.90;8.20;;;-1.20;37.60;;;;;;5070031;28;20384;-71
2022/12/14 03:04:44;;;;;;;13.18;8.07;;;-1.20;38.30;;;;;;5070356;28;20912;-71
2022/12/14 03:07:32;;;;;;;12.80;8.02;;;-1.30;38.90;;;;;;5071367;28;20391;-71
2022/12/14 03:10:06;;;;;;;12.00;7.82;;;-1.30;39.40;;;;;;5071944;28;20847;-70
2022/12/14 03:12:33;;;;;;;12.60;8.27;;;-1.30;39.60;;;;;;5070013;28;20372;-71
2022/12/14 03:15:00;;;;;;;13.82;7.60;;;-1.10;39.40;;;;;;5070404;28;20376;-70
2022/12/14 03:17:29;;;;;;;15.60;8.15;;;-0.90;38.80;;;;;;5070543;28;20388;-70
2022/12/14 03:20:08;;;;;;;12.25;7.30;;;-0.70;38.40;;;;;;5070446;28;20376;-71
2022/12/14 03:22:49;;;;;;;12.77;8.15;;;-0.30;36.80;;;;;;5070052;28;20391;-70
2022/12/14 03:25:25;;;;;;;15.77;7.88;;;-0.20;36.10;;;;;;5070808;28;20372;-71
2022/12/14 03:28:02;;;;;;;16.83;8.77;;;-0.50;36.90;;;;;;5070548;28;20395;-70
2022/12/14 03:30:30;;;;;;;12.90;8.30;;;-0.70;38.20;;;;;;5070111;28;20387;-73
2022/12/14 03:33:01;;;;;;;16.35;8.75;;;-0.80;39.00;;;;;;5070248;28;20388;-71
2022/12/14 03:35:41;;;;;;;14.57;7.90;;;-0.90;39.70;;;;;;5071218;28;20717;-71
2022/12/14 03:38:19;;;;;;;40.67;10.87;;;-0.90;40.10;;;;;;5071392;28;20434;-71
2022/12/14 03:40:49;;;;;;;40.35;12.23;;;-0.90;40.30;;;;;;5071326;28;20445;-71
2022/12/14 03:43:36;;;;;;;21.58;9.95;;;-0.90;40.20;;;;;;5071888;28;20437;-70
2022/12/14 03:46:13;;;;;;;18.60;9.27;;;-0.90;40.40;;;;;;5071193;28;20376;-71
2022/12/14 03:48:47;;;;;;;13.75;8.88;;;-0.90;40.40;;;;;;5070359;28;20403;-72
2022/12/14 03:51:26;;;;;;;14.15;8.10;;;-0.90;40.60;;;;;;5069663;28;20385;-72
2022/12/14 03:54:26;;;;;;;15.27;9.50;;;-0.80;40.50;;;;;;5070438;28;20433;-72
2022/12/14 03:57:06;;;;;;;23.70;9.82;;;-0.70;39.90;;;;;;5068820;28;20384;-72
2022/12/14 03:59:55;;;;;;;14.45;8.20;;;-0.70;40.00;;;;;;5070284;28;20411;-71
2022/12/14 04:02:30;;;;;;;10.80;6.78;;;-0.60;39.30;;;;;;5072919;28;20406;-72
2022/12/14 04:05:19;;;;;;;13.07;7.47;;;-0.50;38.20;;;;;;5073735;28;20391;-71
2022/12/14 04:08:12;;;;;;;14.30;7.68;;;-0.50;37.80;;;;;;5069419;28;20756;-71
2022/12/14 04:19:25;;;;;;;13.52;7.03;;;-0.50;38.50;;;;;;5073729;28;20387;-70
2022/12/14 04:22:14;;;;;;;13.52;7.95;;;-0.30;37.20;;;;;;5072839;28;20739;-70
2022/12/14 04:31:06;;;;;;;14.10;7.20;;;-0.50;39.10;;;;;;5072621;28;20401;-71
2022/12/14 04:33:47;;;;;;;14.83;7.97;;;-0.30;38.80;;;;;;5073796;28;20464;-71
2022/12/14 04:36:24;;;;;;;15.60;7.70;;;-0.10;37.80;;;;;;5073406;28;20725;-70
2022/12/14 04:38:55;;;;;;;13.45;7.82;;;-0.10;36.80;;;;;;5073690;28;20387;-70
2022/12/14 04:41:27;;;;;;;13.77;7.70;;;-0.30;37.80;;;;;;5072732;28;20399;-71
2022/12/14 04:43:56;;;;;;;11.10;7.03;;;-0.50;38.50;;;;;;5073842;28;20403;-71
2022/12/14 04:46:29;;;;;;;13.20;7.63;;;-0.50;38.60;;;;;;5074272;28;20747;-71
2022/12/14 04:49:21;;;;;;;11.15;7.05;;;-0.40;38.50;;;;;;5074143;28;20491;-71
2022/12/14 04:51:50;;;;;;;16.35;7.90;;;-0.40;38.20;;;;;;5073529;28;20383;-71
2022/12/14 04:54:31;;;;;;;14.07;7.93;;;-0.40;37.30;;;;;;5073865;28;20441;-71
2022/12/14 04:57:50;;;;;;;16.10;8.30;;;-0.20;36.90;;;;;;5072935;28;20426;-71
2022/12/14 05:00:15;;;;;;;14.63;7.90;;;-0.30;36.60;;;;;;5050712;28;20436;-70
2022/12/14 05:03:18;;;;;;;13.52;7.32;;;-0.40;36.90;;;;;;5049797;28;20524;-71
2022/12/14 05:05:55;;;;;;;17.17;8.13;;;-0.50;38.00;;;;;;5068825;28;20916;-71
2022/12/14 05:08:50;;;;;;;22.35;9.95;;;-0.40;36.80;;;;;;5072432;28;20396;-71
2022/12/14 05:11:21;;;;;;;14.27;7.50;;;-0.40;36.60;;;;;;5068649;28;20388;-72
2022/12/14 05:13:49;;;;;;;13.90;7.88;;;-0.20;35.70;;;;;;5072753;28;20445;-72
2022/12/14 05:16:17;;;;;;;13.18;6.85;;;0.00;34.20;;;;;;5072739;28;20375;-72
2022/12/14 05:18:43;;;;;;;13.07;6.60;;;-0.20;34.10;;;;;;5072662;28;20383;-71
2022/12/14 05:21:45;;;;;;;13.23;6.90;;;-0.20;34.70;;;;;;5072286;28;20749;-71
2022/12/14 05:24:00;;;;;;;14.43;6.95;;;-0.20;34.60;;;;;;5072669;28;20388;-72
2022/12/14 05:26:26;;;;;;;12.80;6.40;;;-0.30;35.10;;;;;;5084197;28;20388;-72
2022/12/14 05:28:52;;;;;;;11.27;7.40;;;-0.40;35.60;;;;;;5082777;28;20392;-71
2022/12/14 05:31:18;;;;;;;12.75;6.90;;;-0.40;36.00;;;;;;5075143;28;20414;-71
2022/12/14 05:33:43;;;;;;;12.60;6.20;;;-0.40;36.10;;;;;;5074782;28;20391;-72
2022/12/14 05:36:09;;;;;;;12.53;6.60;;;-0.30;36.20;;;;;;5074892;28;20383;-71
2022/12/14 05:38:35;;;;;;;16.85;7.68;;;0.20;35.00;;;;;;5074739;28;20465;-72
2022/12/14 05:41:01;;;;;;;13.93;7.30;;;0.40;34.20;;;;;;5072360;28;20391;-70
2022/12/14 05:43:27;;;;;;;16.65;7.90;;;0.40;33.60;;;;;;5072365;28;20722;-72
2022/12/14 05:45:59;;;;;;;14.70;7.50;;;0.00;34.70;;;;;;5073906;28;20441;-71
2022/12/14 05:48:25;;;;;;;16.80;7.43;;;-0.20;35.70;;;;;;5072382;28;20486;-72
2022/12/14 05:50:51;;;;;;;10.37;6.30;;;-0.30;36.80;;;;;;5071853;28;20784;-71
2022/12/14 05:53:17;;;;;;;18.00;6.85;;;-0.30;36.80;;;;;;5072132;28;20411;-71
2022/12/14 05:55:51;;;;;;;14.63;6.97;;;-0.30;37.00;;;;;;5072490;28;20455;-72
2022/12/14 05:58:17;;;;;;;20.13;8.70;;;-0.30;36.90;;;;;;5071742;28;20392;-71
2022/12/14 06:00:42;;;;;;;20.42;8.05;;;-0.30;37.00;;;;;;5071634;28;20386;-72
2022/12/14 06:03:08;;;;;;;19.75;7.40;;;-0.30;37.00;;;;;;5071432;28;20386;-71
2022/12/14 06:05:34;;;;;;;19.80;8.20;;;-0.20;36.70;;;;;;5071827;28;20384;-71
2022/12/14 06:08:00;;;;;;;27.08;8.52;;;-0.20;36.40;;;;;;5071388;28;20395;-72
2022/12/14 06:10:25;;;;;;;21.70;8.20;;;-0.10;36.30;;;;;;5072070;28;20388;-70
2022/12/14 06:12:51;;;;;;;20.60;7.70;;;-0.20;36.30;;;;;;5071588;28;20384;-71
2022/12/14 06:15:17;;;;;;;18.13;7.85;;;-0.10;36.40;;;;;;5071723;28;20375;-71
2022/12/14 06:17:44;;;;;;;17.47;7.50;;;0.10;35.30;;;;;;5071394;28;20415;-71
2022/12/14 06:20:10;;;;;;;21.08;9.13;;;0.00;35.40;;;;;;5071254;28;20388;-71
2022/12/14 06:22:36;;;;;;;24.02;11.15;;;-0.10;35.60;;;;;;5069215;28;20376;-71
2022/12/14 06:25:02;;;;;;;25.73;10.50;;;-0.20;36.00;;;;;;5070758;28;20470;-72
2022/12/14 06:27:27;;;;;;;24.35;10.70;;;-0.20;36.60;;;;;;5070670;28;20411;-72
2022/12/14 06:29:53;;;;;;;21.48;10.38;;;-0.20;37.10;;;;;;5071165;28;20822;-70
2022/12/14 06:32:18;;;;;;;23.73;9.10;;;-0.20;37.20;;;;;;5070319;28;20379;-71
2022/12/14 06:34:45;;;;;;;22.20;9.37;;;-0.20;37.40;;;;;;5070584;28;20406;-71
2022/12/14 06:37:11;;;;;;;14.63;8.10;;;-0.20;37.30;;;;;;5071083;28;20450;-71
2022/12/14 06:39:37;;;;;;;10.88;6.50;;;-0.10;36.90;;;;;;5071013;28;20388;-71
2022/12/14 06:42:03;;;;;;;8.53;5.73;;;-0.10;36.60;;;;;;5070179;28;20432;-71
2022/12/14 06:44:28;;;;;;;11.10;5.82;;;-0.10;36.20;;;;;;5070872;28;20791;-72
2022/12/14 06:46:54;;;;;;;11.53;6.20;;;-0.10;36.10;;;;;;5070401;28;20460;-72
2022/12/14 06:49:20;;;;;;;11.20;6.23;;;-0.10;35.60;;;;;;5071801;28;20499;-72
2022/12/14 06:51:46;;;;;;;21.20;12.50;;;-0.20;35.00;;;;;;5070479;28;20438;-71
2022/12/14 06:54:13;;;;;;;11.57;7.70;;;-0.20;34.10;;;;;;5070548;28;20460;-70
2022/12/14 06:56:39;;;;;;;11.80;7.43;;;-0.20;34.20;;;;;;5070685;28;20376;-70
2022/12/14 06:59:07;;;;;;;10.23;7.13;;;-0.10;34.50;;;;;;5070720;28;20379;-72
2022/12/14 07:01:33;;;;;;;13.05;8.13;;;0.00;34.60;;;;;;5069814;28;20388;-72
2022/12/14 07:03:59;;;;;;;16.27;10.40;;;-0.10;34.50;;;;;;5070568;28;20851;-71
2022/12/14 07:06:26;;;;;;;29.35;16.17;;;-0.10;35.30;;;;;;5070362;28;20462;-72
2022/12/14 07:08:57;;;;;;;19.00;10.27;;;-0.20;35.00;;;;;;5070719;28;20400;-72
2022/12/14 07:11:24;;;;;;;11.57;7.07;;;-0.20;35.00;;;;;;5070154;28;20388;-72
2022/12/14 07:13:49;;;;;;;17.75;8.63;;;0.00;34.70;;;;;;5070683;28;20384;-71
2022/12/14 07:16:20;;;;;;;21.88;8.85;;;0.00;34.70;;;;;;5070474;28;20384;-72
2022/12/14 07:18:47;;;;;;;15.20;8.82;;;0.00;35.40;;;;;;5070359;28;20410;-71
2022/12/14 07:21:14;;;;;;;12.35;7.63;;;0.00;35.50;;;;;;5069751;28;20452;-71
2022/12/14 07:23:41;;;;;;;13.50;7.60;;;-0.10;36.20;;;;;;5070493;28;20380;-72
2022/12/14 07:26:10;;;;;;;12.05;7.15;;;-0.10;36.10;;;;;;5070520;28;20391;-71
2022/12/14 07:28:36;;;;;;;12.65;6.00;;;0.00;36.40;;;;;;5070252;28;20395;-71
2022/12/14 07:31:03;;;;;;;9.27;5.68;;;0.30;36.20;;;;;;5070183;28;20382;-73
2022/12/14 07:33:28;;;;;;;12.40;6.72;;;0.20;35.40;;;;;;5070798;28;20436;-71
2022/12/14 07:36:08;;;;;;;9.98;5.70;;;0.20;35.20;;;;;;5072798;28;20380;-71
2022/12/14 07:38:35;;;;;;;8.48;6.10;;;0.10;35.30;;;;;;5075022;28;20379;-71
2022/12/14 07:41:10;;;;;;;9.85;6.22;;;0.10;35.00;;;;;;5073827;28;20391;-72
2022/12/14 07:43:38;;;;;;;9.50;6.20;;;0.20;34.50;;;;;;5074631;28;20396;-72
2022/12/14 07:46:06;;;;;;;10.35;6.70;;;0.30;33.50;;;;;;5074687;28;20387;-72
2022/12/14 07:48:32;;;;;;;11.98;6.10;;;0.30;33.10;;;;;;5073785;28;20899;-72
2022/12/14 07:51:09;;;;;;;11.95;6.72;;;0.20;33.20;;;;;;5073637;28;20717;-71
2022/12/14 07:53:36;;;;;;;14.32;7.25;;;0.10;33.40;;;;;;5074471;28;20478;-71
2022/12/14 07:56:06;;;;;;;12.90;7.28;;;0.10;34.10;;;;;;5074257;28;20392;-72
2022/12/14 07:58:33;;;;;;;11.75;6.78;;;0.20;33.80;;;;;;5074672;28;20387;-71
2022/12/14 08:01:17;;;;;;;17.23;6.85;;;0.30;34.10;;;;;;5077414;28;20402;-71
2022/12/14 08:03:49;;;;;;;9.55;6.50;;;0.30;33.50;;;;;;5077444;28;20375;-72
2022/12/14 08:06:17;;;;;;;10.65;6.20;;;0.40;33.40;;;;;;5079410;28;20383;-70
2022/12/14 08:08:42;;;;;;;13.30;6.47;;;0.40;33.00;;;;;;5084114;28;20395;-71
2022/12/14 08:11:09;;;;;;;13.48;7.00;;;0.50;32.40;;;;;;5075079;28;20757;-72
2022/12/14 08:13:35;;;;;;;11.10;6.30;;;0.60;32.20;;;;;;5074345;28;20383;-72
2022/12/14 08:16:09;;;;;;;9.43;6.20;;;0.70;31.80;;;;;;5072249;28;20755;-70
2022/12/14 08:18:34;;;;;;;12.95;6.60;;;0.70;31.50;;;;;;5073849;28;20827;-73
2022/12/14 08:21:01;;;;;;;18.80;6.90;;;0.60;31.60;;;;;;5071757;28;20399;-71
2022/12/14 08:23:27;;;;;;;12.15;6.70;;;0.90;30.90;;;;;;5072885;28;20418;-71
2022/12/14 08:25:57;;;;;;;14.45;7.55;;;0.80;30.90;;;;;;5072012;28;20395;-71
2022/12/14 08:28:22;;;;;;;12.63;6.80;;;0.80;31.70;;;;;;5072223;28;20400;-72
2022/12/14 08:30:48;;;;;;;20.17;8.83;;;0.70;30.90;;;;;;5073443;28;20418;-71
2022/12/14 08:33:14;;;;;;;18.10;7.75;;;0.70;31.00;;;;;;5072687;28;20388;-72
2022/12/14 08:35:39;;;;;;;17.83;8.90;;;0.70;31.30;;;;;;5071807;28;20395;-72
2022/12/14 08:38:05;;;;;;;12.40;7.43;;;0.70;31.70;;;;;;5073162;28;20392;-73
2022/12/14 08:40:34;;;;;;;18.20;8.27;;;0.70;31.40;;;;;;5071907;28;20402;-72
2022/12/14 08:42:59;;;;;;;15.32;8.25;;;0.90;30.60;;;;;;5087288;23;20438;-76
2022/12/14 08:45:25;;;;;;;13.60;7.10;;;0.90;30.80;;;;;;5074558;28;20380;-76
2022/12/14 08:47:51;;;;;;;11.47;6.63;;;1.00;30.10;;;;;;5059970;28;20921;-76
2022/12/14 08:50:16;;;;;;;18.97;7.83;;;1.30;29.90;;;;;;5055505;28;20951;-76
2022/12/14 08:52:45;;;;;;;10.98;7.07;;;1.30;28.90;;;;;;5055405;28;20465;-76
2022/12/14 08:55:11;;;;;;;15.30;7.90;;;1.20;28.70;;;;;;5054646;28;20385;-77
2022/12/14 08:57:36;;;;;;;11.68;7.13;;;1.20;28.50;;;;;;5056916;28;20949;-75
2022/12/14 09:00:03;;;;;;;11.38;7.43;;;1.20;28.50;;;;;;5075526;28;20376;-78
2022/12/14 09:02:29;;;;;;;11.82;6.97;;;1.30;28.50;;;;;;5075370;28;20466;-77
2022/12/14 09:04:54;;;;;;;13.07;7.60;;;1.30;27.90;;;;;;5075447;28;20816;-76
2022/12/14 09:07:20;;;;;;;12.80;7.30;;;1.40;27.40;;;;;;5076178;28;20498;-77
2022/12/14 09:09:45;;;;;;;11.17;7.10;;;1.40;27.10;;;;;;5075756;28;20404;-76
2022/12/14 09:12:11;;;;;;;12.70;7.10;;;1.40;27.40;;;;;;5076308;28;20692;-74
2022/12/14 09:14:36;;;;;;;11.97;7.03;;;1.40;27.40;;;;;;5083389;28;20430;-76
2022/12/14 09:17:02;;;;;;;17.33;8.97;;;1.50;27.70;;;;;;5087987;28;20407;-76
2022/12/14 09:19:28;;;;;;;14.53;8.63;;;1.50;27.40;;;;;;5092588;28;20415;-75
2022/12/14 09:21:54;;;;;;;16.55;8.50;;;1.50;26.60;;;;;;5090852;28;20578;-75
2022/12/14 09:24:21;;;;;;;14.60;8.10;;;1.70;28.40;;;;;;5088917;28;20384;-75
2022/12/14 09:26:46;;;;;;;18.15;8.80;;;1.70;26.30;;;;;;5080367;28;20394;-75
2022/12/14 09:29:16;;;;;;;15.30;8.57;;;1.60;26.20;;;;;;5074471;28;20403;-76
2022/12/14 09:31:42;;;;;;;13.40;7.72;;;1.60;26.40;;;;;;5071689;28;20383;-75
2022/12/14 09:34:08;;;;;;;10.70;7.15;;;1.60;26.70;;;;;;5074991;28;20913;-75
2022/12/14 09:36:34;;;;;;;11.30;7.20;;;1.60;26.80;;;;;;5073730;28;20392;-76
2022/12/14 09:39:00;;;;;;;15.60;7.70;;;1.70;26.70;;;;;;5074224;28;20894;-77
2022/12/14 09:41:35;;;;;;;12.60;7.70;;;1.90;26.40;;;;;;5072169;28;20396;-74
2022/12/14 09:44:15;;;;;;;13.13;8.10;;;2.40;23.70;;;;;;5074137;28;20411;-76
2022/12/14 09:46:59;;;;;;;11.95;7.20;;;2.40;23.30;;;;;;5073212;28;20380;-75
2022/12/14 09:49:47;;;;;;;16.25;8.60;;;2.50;23.00;;;;;;5074530;28;20395;-76
2022/12/14 09:53:11;;;;;;;12.10;7.45;;;2.30;24.00;;;;;;5074026;28;20391;-76
2022/12/14 09:55:42;;;;;;;15.15;9.07;;;2.30;24.30;;;;;;5052385;28;20456;-76
2022/12/14 09:58:17;;;;;;;18.67;8.75;;;2.20;24.30;;;;;;5071162;28;20406;-76
2022/12/14 10:00:47;;;;;;;21.35;8.90;;;2.20;24.10;;;;;;5072045;28;20822;-75
2022/12/14 10:03:27;;;;;;;25.98;9.40;;;2.20;23.70;;;;;;5073477;28;20433;-76
2022/12/14 10:06:14;;;;;;;20.77;9.27;;;2.10;24.10;;;;;;5073065;28;20399;-75
2022/12/14 10:08:49;;;;;;;23.80;10.80;;;2.10;24.20;;;;;;5082727;28;20409;-76
2022/12/14 10:11:41;;;;;;;17.37;9.07;;;2.00;24.90;;;;;;5084245;28;20406;-74
2022/12/14 10:14:38;;;;;;;16.77;9.77;;;1.90;23.80;;;;;;5085316;28;20394;-75
2022/12/14 10:17:28;;;;;;;18.85;11.50;;;2.00;25.00;;;;;;5077771;28;20399;-75
2022/12/14 10:20:03;;;;;;;13.60;9.00;;;2.00;25.70;;;;;;5083644;28;20402;-75
2022/12/14 10:22:38;;;;;;;18.10;9.32;;;1.90;24.70;;;;;;5079509;28;20414;-76
2022/12/14 10:25:12;;;;;;;13.82;9.10;;;2.00;24.60;;;;;;5079076;28;20379;-77
2022/12/14 10:27:41;;;;;;;18.63;9.68;;;2.10;24.50;;;;;;5076662;28;20444;-77
2022/12/14 10:30:15;;;;;;;15.38;10.07;;;2.20;23.90;;;;;;5081932;28;20387;-75
2022/12/14 10:32:48;;;;;;;17.15;9.30;;;2.50;24.30;;;;;;5086926;28;20751;-76
2022/12/14 10:35:17;;;;;;;17.42;9.85;;;2.60;23.80;;;;;;5084362;28;20382;-77
2022/12/14 10:37:46;;;;;;;15.43;9.25;;;2.60;22.60;;;;;;5089923;28;20375;-77
2022/12/14 10:40:30;;;;;;;16.90;9.73;;;2.80;23.10;;;;;;5090711;28;20391;-77
2022/12/14 10:43:17;;;;;;;15.48;8.90;;;2.70;22.20;;;;;;5075385;28;20392;-77
2022/12/14 10:45:49;;;;;;;26.15;14.30;;;2.60;22.60;;;;;;5071459;28;20883;-77
2022/12/14 10:48:30;;;;;;;20.80;10.27;;;2.60;22.50;;;;;;5072739;28;20395;-77
2022/12/14 10:51:00;;;;;;;16.35;9.20;;;2.70;22.40;;;;;;5071143;28;20379;-76
2022/12/14 10:53:43;;;;;;;16.67;9.60;;;2.80;22.10;;;;;;5073978;28;20421;-76
2022/12/14 10:56:23;;;;;;;17.77;10.32;;;2.70;21.90;;;;;;5077613;28;20418;-77
2022/12/14 10:59:14;;;;;;;19.30;10.13;;;2.70;22.70;;;;;;5078549;28;20395;-76
2022/12/14 11:01:39;;;;;;;16.08;10.07;;;2.70;22.80;;;;;;5078314;28;20928;-76
2022/12/14 11:04:17;;;;;;;17.40;10.52;;;2.80;22.90;;;;;;5075567;28;20407;-77
2022/12/14 11:06:42;;;;;;;17.42;11.07;;;2.80;23.00;;;;;;5077049;28;20883;-75
2022/12/14 11:09:22;;;;;;;17.67;10.40;;;2.90;23.10;;;;;;5074334;28;20408;-77
2022/12/14 11:11:47;;;;;;;17.95;10.68;;;3.00;22.40;;;;;;5074580;28;20744;-77
2022/12/14 11:14:21;;;;;;;16.87;10.90;;;3.00;22.70;;;;;;5076445;28;20384;-76
2022/12/14 11:16:46;;;;;;;19.42;11.23;;;3.10;24.00;;;;;;5072590;28;20482;-75
2022/12/14 11:19:20;;;;;;;18.75;10.57;;;3.00;23.30;;;;;;5079685;28;20419;-77
2022/12/14 11:21:47;;;;;;;17.95;10.95;;;3.00;23.10;;;;;;5091049;28;20376;-75
2022/12/14 11:24:27;;;;;;;22.00;11.85;;;3.10;23.90;;;;;;5079881;28;20388;-77
2022/12/14 11:26:57;;;;;;;19.52;11.10;;;3.10;23.00;;;;;;5093024;28;20383;-77
2022/12/14 11:29:33;;;;;;;19.15;11.07;;;3.20;22.40;;;;;;5079551;28;20403;-75
2022/12/14 11:31:59;;;;;;;17.87;10.87;;;3.20;22.00;;;;;;5089444;28;20395;-76
2022/12/14 11:34:40;;;;;;;17.17;10.60;;;3.20;22.80;;;;;;5088377;28;20949;-77
2022/12/14 11:37:18;;;;;;;17.58;10.65;;;3.20;23.10;;;;;;5087988;28;20388;-75
2022/12/14 11:39:49;;;;;;;19.50;10.80;;;3.30;23.00;;;;;;5081815;28;20423;-77
2022/12/14 11:42:17;;;;;;;19.25;10.70;;;3.20;22.50;;;;;;5085779;28;20422;-77
2022/12/14 11:44:45;;;;;;;16.10;10.50;;;3.10;23.40;;;;;;5087733;28;20463;-75
2022/12/14 11:47:16;;;;;;;30.13;12.40;;;3.30;23.70;;;;;;5090335;28;20376;-76
2022/12/14 11:49:47;;;;;;;19.85;11.43;;;3.20;23.20;;;;;;5092978;28;20399;-77
2022/12/14 11:52:36;;;;;;;18.35;11.05;;;3.40;24.20;;;;;;5092481;28;20390;-76
2022/12/14 11:55:08;;;;;;;16.10;10.00;;;3.30;22.80;;;;;;5086735;28;20391;-75
2022/12/14 11:57:40;;;;;;;19.23;11.77;;;3.30;22.60;;;;;;5089802;28;20387;-78
2022/12/14 12:00:27;;;;;;;17.80;10.80;;;3.30;23.70;;;;;;5086275;28;20380;-77
2022/12/14 12:02:59;;;;;;;17.52;10.48;;;3.30;23.70;;;;;;5083230;28;20391;-76
2022/12/14 12:05:26;;;;;;;20.60;11.23;;;3.40;23.20;;;;;;5086610;28;20380;-77
2022/12/14 12:07:57;;;;;;;25.02;13.07;;;3.30;22.40;;;;;;5081865;28;20831;-78
2022/12/14 12:10:22;;;;;;;26.95;12.02;;;3.30;23.00;;;;;;5074569;28;20441;-76
2022/12/14 12:12:59;;;;;;;15.93;10.98;;;3.20;22.70;;;;;;5074140;28;20771;-75
2022/12/14 12:15:53;;;;;;;17.25;10.95;;;3.10;22.80;;;;;;5075065;28;20379;-76
2022/12/14 12:18:27;;;;;;;19.80;12.23;;;3.10;23.20;;;;;;5071714;28;20391;-76
2022/12/14 12:21:11;;;;;;;18.08;12.02;;;2.90;23.80;;;;;;5073972;28;20371;-77
2022/12/14 12:23:44;;;;;;;19.03;11.77;;;2.80;24.60;;;;;;5079037;28;20491;-77
2022/12/14 12:26:23;;;;;;;19.77;12.18;;;2.60;24.50;;;;;;5078507;28;20387;-76
2022/12/14 12:29:19;;;;;;;20.70;12.10;;;2.40;24.70;;;;;;5077563;28;20903;-75
2022/12/14 12:31:49;;;;;;;18.23;11.65;;;2.30;24.90;;;;;;5073402;28;20384;-76
2022/12/14 12:34:45;;;;;;;21.92;12.88;;;2.10;25.20;;;;;;5078130;28;20398;-76
2022/12/14 12:37:18;;;;;;;21.23;12.50;;;2.00;26.70;;;;;;5078837;28;20383;-75
2022/12/14 12:39:49;;;;;;;21.80;12.57;;;2.00;28.20;;;;;;5076412;28;20449;-76
2022/12/14 12:42:29;;;;;;;19.60;12.43;;;2.10;27.30;;;;;;5074834;28;20408;-76
2022/12/14 12:45:04;;;;;;;19.80;11.40;;;2.00;28.00;;;;;;5076860;28;20383;-76
2022/12/14 12:47:40;;;;;;;22.55;12.43;;;2.00;27.60;;;;;;5079352;28;20732;-77
2022/12/14 12:50:13;;;;;;;20.50;12.17;;;2.00;27.70;;;;;;5077150;28;20513;-77
2022/12/14 12:52:56;;;;;;;21.83;13.60;;;2.00;28.00;;;;;;5078981;28;20383;-77
2022/12/14 12:55:25;;;;;;;20.80;13.15;;;2.00;29.40;;;;;;5079699;28;20426;-77
2022/12/14 12:57:53;;;;;;;22.90;13.27;;;2.00;29.70;;;;;;5078129;28;20390;-75
2022/12/14 13:00:26;;;;;;;25.17;13.35;;;1.90;29.30;;;;;;5076452;28;20416;-78
2022/12/14 13:03:07;;;;;;;19.27;12.50;;;1.90;29.70;;;;;;5078707;28;20388;-76
2022/12/14 13:05:35;;;;;;;20.52;13.02;;;2.00;29.20;;;;;;5079431;28;20383;-78
2022/12/14 13:08:18;;;;;;;23.77;13.55;;;1.90;28.70;;;;;;5086337;28;20457;-75
2022/12/14 13:10:45;;;;;;;20.73;12.95;;;1.80;29.00;;;;;;5089009;28;20382;-77
2022/12/14 13:13:15;;;;;;;20.73;12.85;;;1.80;29.00;;;;;;5084520;28;20380;-75
2022/12/14 13:15:48;;;;;;;25.02;13.20;;;1.70;29.00;;;;;;5080061;28;20383;-77
2022/12/14 13:18:34;;;;;;;26.58;13.38;;;1.70;30.00;;;;;;5085456;28;20380;-76
2022/12/14 13:21:11;;;;;;;21.65;13.63;;;1.70;30.40;;;;;;5088847;28;20383;-77